Time;durP1;ratioP1;P1;durP2;ratioP2;P2;SDS_P1;SDS_P2;PMS_P1;PMS_P2;Temp;Humidity;BMP_temperature;BMP_pressure;BME280_temperature;BME280_humidity;BME280_pressure;Samples;Min_cycle;Max_cycle;Signal;HPM_P1;HPM_P2
2021/07/07 00:01:50;;;;;;;2.60;1.20;;;;;;;20.21;71.60;100615.91;5116423;28;20706;-72
2021/07/07 00:04:15;;;;;;;2.50;1.00;;;;;;;20.19;71.44;100611.66;5097793;28;20169;-71
2021/07/07 00:06:41;;;;;;;1.90;1.00;;;;;;;20.16;71.52;100617.38;5116325;28;20184;-71
2021/07/07 00:09:06;;;;;;;2.67;1.13;;;;;;;20.02;72.03;100607.84;5081357;28;20194;-72
2021/07/07 00:11:31;;;;;;;1.40;1.00;;;;;;;20.08;71.66;100603.72;5116703;28;20686;-72
2021/07/07 00:13:56;;;;;;;1.00;0.90;;;;;;;20.10;71.42;100615.25;5116379;28;20174;-72
2021/07/07 00:16:22;;;;;;;5.20;1.30;;;;;;;20.18;71.12;100629.75;5116124;28;20170;-72
2021/07/07 00:18:47;;;;;;;1.37;0.93;;;;;;;20.17;71.00;100638.91;5097780;28;20189;-72
2021/07/07 00:21:13;;;;;;;3.23;1.00;;;;;;;20.16;71.09;100648.03;5081144;28;20177;-73
2021/07/07 00:23:39;;;;;;;1.50;0.80;;;;;;;20.10;71.04;100651.31;5098106;28;20188;-73
2021/07/07 00:26:04;;;;;;;2.27;0.80;;;;;;;20.05;70.69;100637.34;5115824;28;20661;-72
2021/07/07 00:28:29;;;;;;;1.30;0.90;;;;;;;20.05;70.92;100641.91;5096991;28;20727;-73
2021/07/07 00:30:55;;;;;;;1.10;0.93;;;;;;;20.12;69.95;100662.03;5115571;28;20208;-71
2021/07/07 00:33:20;;;;;;;3.67;1.13;;;;;;;20.06;70.24;100655.31;5097308;28;20174;-72
2021/07/07 00:35:46;;;;;;;1.23;0.97;;;;;;;19.97;70.65;100651.63;5097326;28;20185;-72
2021/07/07 00:38:13;;;;;;;3.20;1.20;;;;;;;19.92;70.69;100648.50;5080433;28;20230;-72
2021/07/07 00:40:40;;;;;;;2.10;1.20;;;;;;;19.94;70.39;100656.47;5097623;28;20168;-72
2021/07/07 00:43:05;;;;;;;1.30;0.90;;;;;;;19.95;70.32;100659.03;5097992;28;20170;-72
2021/07/07 00:45:30;;;;;;;1.20;1.10;;;;;;;19.99;70.11;100656.88;5080966;28;20678;-72
2021/07/07 00:47:56;;;;;;;4.20;1.03;;;;;;;20.00;70.13;100669.44;5116012;28;20558;-72
2021/07/07 00:50:21;;;;;;;1.60;1.10;;;;;;;19.81;70.85;100677.59;5115451;28;20223;-71
2021/07/07 00:52:47;;;;;;;2.27;1.20;;;;;;;19.87;70.83;100677.03;5097424;28;20247;-72
2021/07/07 00:55:14;;;;;;;1.30;1.10;;;;;;;19.84;71.27;100680.03;5115319;28;20198;-71
2021/07/07 00:57:43;;;;;;;1.97;0.90;;;;;;;19.80;71.37;100682.16;5115194;28;20186;-71
2021/07/07 01:00:11;;;;;;;5.13;1.13;;;;;;;19.83;71.30;100679.16;5097910;28;20162;-72
2021/07/07 01:02:38;;;;;;;3.27;1.10;;;;;;;19.85;71.23;100679.88;5097184;28;20537;-72
2021/07/07 01:05:08;;;;;;;2.37;1.37;;;;;;;19.78;71.75;100683.31;5096855;28;20162;-72
2021/07/07 01:07:33;;;;;;;1.10;1.00;;;;;;;19.78;71.52;100694.16;5096957;28;20615;-72
2021/07/07 01:09:59;;;;;;;2.00;1.07;;;;;;;19.80;71.45;100695.72;5096679;28;20181;-72
2021/07/07 01:12:26;;;;;;;1.07;0.97;;;;;;;19.78;71.45;100699.56;5097094;28;20193;-71
2021/07/07 01:14:53;;;;;;;2.50;1.10;;;;;;;19.81;71.37;100716.38;5096533;28;20169;-72
2021/07/07 01:17:19;;;;;;;5.00;1.10;;;;;;;19.81;71.50;100712.81;5095628;28;20173;-72
2021/07/07 01:19:44;;;;;;;4.63;1.03;;;;;;;19.75;71.64;100719.66;5114503;28;20173;-72
2021/07/07 01:22:10;;;;;;;1.40;1.10;;;;;;;19.75;71.74;100721.50;5096261;28;20166;-72
2021/07/07 01:24:35;;;;;;;3.23;1.37;;;;;;;19.72;71.84;100727.22;5095982;28;20165;-72
2021/07/07 01:27:00;;;;;;;3.43;1.10;;;;;;;19.66;72.13;100729.47;5114359;28;20189;-72
2021/07/07 01:29:26;;;;;;;2.70;1.10;;;;;;;19.70;72.17;100730.06;5095728;28;20244;-72
2021/07/07 01:31:51;;;;;;;1.40;0.90;;;;;;;19.63;72.41;100731.59;5114443;28;20252;-72
2021/07/07 01:34:16;;;;;;;2.10;1.20;;;;;;;19.54;72.40;100724.34;5114354;28;20184;-71
2021/07/07 01:36:42;;;;;;;1.87;1.17;;;;;;;19.56;72.68;100730.47;5114766;28;20173;-72
2021/07/07 01:39:08;;;;;;;2.23;1.10;;;;;;;19.57;72.51;100730.31;5114138;28;20186;-71
2021/07/07 01:41:33;;;;;;;1.30;1.10;;;;;;;19.50;72.68;100734.56;5095967;28;20173;-72
2021/07/07 01:43:59;;;;;;;1.00;1.00;;;;;;;19.53;72.78;100728.03;5096107;28;20185;-72
2021/07/07 01:46:24;;;;;;;1.93;1.10;;;;;;;19.61;72.10;100726.34;5096066;28;20233;-72
2021/07/07 01:48:50;;;;;;;2.23;1.30;;;;;;;19.59;71.99;100727.47;5095750;28;20543;-72
2021/07/07 01:51:16;;;;;;;4.37;1.10;;;;;;;19.44;72.68;100728.88;5095814;28;20668;-72
2021/07/07 01:53:41;;;;;;;3.70;1.10;;;;;;;19.53;72.42;100730.75;5095689;28;20634;-72
2021/07/07 01:56:06;;;;;;;3.07;1.30;;;;;;;19.47;72.62;100731.28;5095662;28;20174;-72
2021/07/07 01:58:32;;;;;;;4.97;1.47;;;;;;;19.42;72.97;100737.13;5114384;28;20185;-72
2021/07/07 02:00:57;;;;;;;4.13;1.40;;;;;;;19.50;72.53;100739.13;5115722;28;20181;-72
2021/07/07 02:03:22;;;;;;;2.93;2.07;;;;;;;19.50;72.19;100737.28;5095550;28;20176;-72
2021/07/07 02:05:48;;;;;;;3.50;1.27;;;;;;;19.41;72.70;100730.00;5078532;28;20211;-72
2021/07/07 02:08:13;;;;;;;1.63;1.10;;;;;;;19.31;73.36;100735.38;5078569;28;20193;-73
2021/07/07 02:10:39;;;;;;;1.63;1.27;;;;;;;19.42;72.56;100738.97;5095480;28;20205;-72
2021/07/07 02:13:09;;;;;;;3.97;1.60;;;;;;;19.35;72.97;100734.13;5113132;28;20173;-72
2021/07/07 02:15:35;;;;;;;2.27;1.13;;;;;;;19.34;72.97;100740.53;5112918;28;20652;-72
2021/07/07 02:18:01;;;;;;;4.13;1.27;;;;;;;19.22;73.47;100738.06;5130496;28;20249;-73
2021/07/07 02:20:33;;;;;;;3.70;1.40;;;;;;;19.21;73.82;100742.63;5097918;28;20165;-73
2021/07/07 02:22:58;;;;;;;1.50;1.30;;;;;;;19.20;73.67;100753.59;5113729;28;20261;-73
2021/07/07 02:25:27;;;;;;;6.07;1.23;;;;;;;19.09;74.70;100759.13;5096004;28;20205;-73
2021/07/07 02:27:54;;;;;;;1.60;1.20;;;;;;;19.01;75.07;100757.09;5113311;28;20236;-73
2021/07/07 02:30:23;;;;;;;1.70;1.27;;;;;;;18.98;75.09;100755.53;5095360;28;20281;-73
2021/07/07 02:32:49;;;;;;;1.63;1.27;;;;;;;18.94;75.15;100745.94;5095074;28;20310;-73
2021/07/07 02:35:23;;;;;;;4.90;1.27;;;;;;;19.00;75.08;100758.94;5095717;28;20580;-72
2021/07/07 02:37:52;;;;;;;5.07;1.53;;;;;;;19.05;74.51;100756.69;5078344;28;20232;-72
2021/07/07 02:40:20;;;;;;;2.70;1.70;;;;;;;19.03;74.72;100752.41;5095432;28;20169;-72
2021/07/07 02:42:46;;;;;;;1.60;1.13;;;;;;;19.01;74.83;100759.81;5113664;28;20268;-73
2021/07/07 02:45:12;;;;;;;3.37;1.30;;;;;;;18.97;74.75;100753.81;5095456;28;20260;-72
2021/07/07 02:47:38;;;;;;;2.43;1.30;;;;;;;18.99;74.72;100754.53;5116926;28;20203;-72
2021/07/07 02:50:05;;;;;;;3.67;1.43;;;;;;;18.98;74.65;100771.75;5097392;28;20201;-73
2021/07/07 02:52:30;;;;;;;2.03;1.10;;;;;;;19.02;74.57;100772.34;5094933;28;20216;-73
2021/07/07 02:54:56;;;;;;;1.63;1.40;;;;;;;18.95;75.43;100776.56;5113281;28;20222;-73
2021/07/07 02:57:21;;;;;;;3.63;1.43;;;;;;;18.84;75.06;100758.59;5113442;28;20174;-73
2021/07/07 02:59:46;;;;;;;2.20;1.07;;;;;;;18.91;74.68;100748.94;5113743;28;20212;-72
2021/07/07 03:02:12;;;;;;;1.50;1.10;;;;;;;18.78;75.08;100740.22;5096351;28;20203;-72
2021/07/07 03:04:38;;;;;;;1.47;1.10;;;;;;;18.79;74.53;100747.31;5115905;28;20173;-72
2021/07/07 03:07:04;;;;;;;2.57;1.40;;;;;;;18.78;74.61;100742.06;5113943;28;20261;-72
2021/07/07 03:09:29;;;;;;;1.17;0.90;;;;;;;18.72;75.19;100740.75;5095242;28;20208;-71
2021/07/07 03:11:55;;;;;;;2.77;1.23;;;;;;;18.67;75.76;100745.72;5113616;28;20178;-72
2021/07/07 03:14:20;;;;;;;2.97;1.13;;;;;;;18.70;74.97;100748.16;5115022;28;20192;-71
2021/07/07 03:16:45;;;;;;;2.27;1.40;;;;;;;18.77;75.03;100761.97;5097100;28;20173;-71
2021/07/07 03:19:11;;;;;;;2.33;1.30;;;;;;;18.78;74.91;100745.63;5113871;28;20194;-71
2021/07/07 03:21:36;;;;;;;1.90;1.30;;;;;;;18.78;74.69;100748.31;5114374;28;20630;-72
2021/07/07 03:24:01;;;;;;;3.00;1.20;;;;;;;18.71;75.06;100752.56;5096288;28;20174;-72
2021/07/07 03:26:27;;;;;;;3.53;1.20;;;;;;;18.69;74.87;100751.84;5095794;28;20205;-72
2021/07/07 03:28:52;;;;;;;1.83;1.00;;;;;;;18.52;75.86;100736.19;5113352;28;20213;-72
2021/07/07 03:31:17;;;;;;;3.37;1.27;;;;;;;18.51;75.61;100739.91;5113476;28;20180;-72
2021/07/07 03:33:42;;;;;;;2.07;1.00;;;;;;;18.47;75.96;100744.72;5094998;28;20657;-72
2021/07/07 03:36:08;;;;;;;1.40;1.13;;;;;;;18.42;76.60;100747.81;5094891;28;20186;-72
2021/07/07 03:38:33;;;;;;;1.77;1.20;;;;;;;18.40;77.20;100763.31;5095073;28;20208;-72
2021/07/07 03:40:58;;;;;;;3.97;1.40;;;;;;;18.37;76.94;100766.28;5116486;28;20307;-71
2021/07/07 03:43:24;;;;;;;5.37;1.30;;;;;;;18.35;77.24;100770.97;5098244;28;20305;-71
2021/07/07 03:45:49;;;;;;;8.27;1.57;;;;;;;18.39;77.34;100785.91;5098144;28;20181;-72
2021/07/07 03:48:14;;;;;;;3.20;1.27;;;;;;;18.41;76.96;100791.19;5116342;28;20221;-72
2021/07/07 03:50:40;;;;;;;1.47;0.97;;;;;;;18.51;76.46;100811.00;5098698;28;20329;-72
2021/07/07 03:53:07;;;;;;;2.80;1.30;;;;;;;18.56;76.24;100806.06;5097994;28;20706;-72
2021/07/07 03:55:33;;;;;;;2.20;1.30;;;;;;;18.54;76.53;100820.69;5116298;28;20203;-73
2021/07/07 03:57:58;;;;;;;3.63;1.20;;;;;;;18.73;75.59;100831.69;5097903;28;20219;-72
2021/07/07 04:00:26;;;;;;;2.23;1.30;;;;;;;18.80;75.10;100843.66;5115911;28;20165;-72
2021/07/07 04:02:53;;;;;;;2.50;1.20;;;;;;;18.96;74.04;100845.91;5097998;28;20200;-72
2021/07/07 04:05:19;;;;;;;13.17;1.40;;;;;;;18.95;74.11;100841.47;5097898;28;20181;-73
2021/07/07 04:07:44;;;;;;;3.97;1.20;;;;;;;18.95;73.81;100836.06;5097851;28;20190;-72
2021/07/07 04:10:11;;;;;;;3.03;1.60;;;;;;;18.89;73.17;100850.97;5098041;28;20714;-72
2021/07/07 04:12:38;;;;;;;3.17;1.50;;;;;;;18.88;73.50;100853.81;5098010;28;20542;-72
2021/07/07 04:15:05;;;;;;;8.40;1.37;;;;;;;18.87;73.37;100861.06;5097738;28;20630;-72
2021/07/07 04:17:31;;;;;;;4.97;1.23;;;;;;;18.88;73.24;100878.16;5080449;28;20224;-72
2021/07/07 04:19:56;;;;;;;1.93;1.00;;;;;;;18.75;73.59;100864.84;5097615;28;20169;-72
2021/07/07 04:22:21;;;;;;;1.90;1.47;;;;;;;18.55;73.98;100849.44;5115780;28;20227;-71
2021/07/07 04:24:47;;;;;;;2.93;1.07;;;;;;;18.59;73.91;100848.22;5097291;28;20551;-72
2021/07/07 04:27:12;;;;;;;4.93;1.70;;;;;;;18.44;74.05;100832.31;5097881;28;20166;-71
2021/07/07 04:29:37;;;;;;;4.93;1.80;;;;;;;18.41;75.80;100821.78;5098867;28;20214;-72
2021/07/07 04:32:03;;;;;;;2.07;1.23;;;;;;;18.34;75.65;100811.63;5116227;28;20165;-72
2021/07/07 04:34:28;;;;;;;1.37;1.17;;;;;;;18.30;75.68;100816.44;5115968;28;20177;-74
2021/07/07 04:36:54;;;;;;;1.63;1.27;;;;;;;18.27;75.93;100822.09;5115801;28;20165;-73
2021/07/07 04:39:19;;;;;;;2.13;1.10;;;;;;;18.30;74.94;100832.66;5115589;28;20185;-72
2021/07/07 04:41:44;;;;;;;4.03;1.43;;;;;;;18.30;77.15;100832.66;5115447;28;20169;-72
2021/07/07 04:44:10;;;;;;;2.50;1.30;;;;;;;18.38;77.40;100832.00;5115721;28;20181;-71
2021/07/07 04:46:35;;;;;;;2.87;1.40;;;;;;;18.43;78.29;100829.75;5096992;28;20554;-72
2021/07/07 04:49:00;;;;;;;7.50;1.50;;;;;;;18.40;78.04;100824.59;5096865;28;20685;-72
2021/07/07 04:51:26;;;;;;;2.10;1.37;;;;;;;18.36;79.29;100825.84;5096163;28;20166;-71
2021/07/07 04:53:51;;;;;;;3.23;1.10;;;;;;;18.25;79.95;100853.81;5096718;28;20169;-72
2021/07/07 04:56:17;;;;;;;5.53;1.20;;;;;;;18.26;80.31;100860.91;5097197;28;20261;-72
2021/07/07 04:58:42;;;;;;;3.43;1.83;;;;;;;18.26;80.24;100874.44;5079728;28;20192;-72
2021/07/07 05:01:08;;;;;;;4.40;1.47;;;;;;;18.24;80.74;100862.88;5096769;28;20545;-72
2021/07/07 05:03:34;;;;;;;4.07;1.47;;;;;;;18.26;80.66;100860.06;5114917;28;20196;-71
2021/07/07 05:05:59;;;;;;;4.27;1.73;;;;;;;18.28;80.44;100875.16;5096493;28;20244;-72
2021/07/07 05:08:24;;;;;;;3.60;1.50;;;;;;;18.39;78.92;100883.19;5096760;28;20688;-71
2021/07/07 05:10:49;;;;;;;4.23;1.60;;;;;;;18.36;79.92;100866.38;5096769;28;20193;-72
2021/07/07 05:13:17;;;;;;;2.50;1.23;;;;;;;18.26;81.06;100868.16;5114578;28;20181;-71
2021/07/07 05:15:42;;;;;;;2.07;1.20;;;;;;;18.23;81.04;100866.56;5114568;28;20166;-71
2021/07/07 05:18:08;;;;;;;6.33;1.23;;;;;;;18.26;79.81;100876.25;5096150;28;20190;-71
2021/07/07 05:20:34;;;;;;;4.77;1.37;;;;;;;18.36;78.58;100888.84;5096242;28;20170;-71
2021/07/07 05:23:06;;;;;;;3.33;1.40;;;;;;;18.48;78.77;100883.41;5079251;28;20169;-70
2021/07/07 05:25:32;;;;;;;2.47;1.37;;;;;;;18.40;76.87;100857.03;5096914;28;20154;-70
2021/07/07 05:27:57;;;;;;;9.67;1.50;;;;;;;18.33;79.05;100864.81;5113988;28;20204;-70
2021/07/07 05:30:24;;;;;;;3.67;1.60;;;;;;;18.27;81.98;100889.66;5115004;28;20189;-70
2021/07/07 05:32:50;;;;;;;5.23;1.63;;;;;;;18.21;83.04;100900.97;5115181;28;20193;-70
2021/07/07 05:35:15;;;;;;;6.97;1.60;;;;;;;18.26;83.11;100892.47;5095947;28;20250;-70
2021/07/07 05:37:40;;;;;;;4.90;1.80;;;;;;;18.22;84.94;100907.22;5115194;28;20200;-71
2021/07/07 05:40:06;;;;;;;3.17;1.50;;;;;;;18.30;84.78;100894.78;5098343;28;20170;-70
2021/07/07 05:42:31;;;;;;;3.90;1.90;;;;;;;18.40;84.46;100901.13;5096103;28;20178;-71
2021/07/07 05:44:58;;;;;;;5.00;1.53;;;;;;;18.23;84.07;100912.50;5114631;28;20166;-71
2021/07/07 05:47:24;;;;;;;4.13;1.80;;;;;;;18.17;84.10;100931.91;5113833;28;20161;-67
2021/07/07 05:49:49;;;;;;;4.30;1.40;;;;;;;17.99;85.39;100946.94;5096214;28;20284;-74
2021/07/07 05:52:14;;;;;;;3.77;1.70;;;;;;;18.01;85.19;100937.72;5095942;28;20755;-73
2021/07/07 05:54:40;;;;;;;4.10;1.90;;;;;;;17.94;85.36;100938.34;5096170;28;20172;-75
2021/07/07 05:57:05;;;;;;;6.00;1.77;;;;;;;17.86;85.75;100938.13;5114174;28;20177;-74
2021/07/07 05:59:30;;;;;;;3.83;1.53;;;;;;;17.93;85.35;100953.69;5095696;28;20191;-73
2021/07/07 06:01:56;;;;;;;3.67;2.03;;;;;;;18.01;85.01;100936.88;5113581;28;20598;-73
2021/07/07 06:04:21;;;;;;;5.77;1.83;;;;;;;18.05;84.46;100922.97;5095806;28;20181;-74
2021/07/07 06:06:47;;;;;;;4.20;1.60;;;;;;;18.09;83.98;100910.06;5095801;28;20169;-72
2021/07/07 06:09:12;;;;;;;3.23;1.80;;;;;;;18.06;84.31;100923.84;5095802;28;20673;-74
2021/07/07 06:11:37;;;;;;;7.10;1.90;;;;;;;18.10;84.55;100922.59;5114427;28;20181;-73
2021/07/07 06:14:03;;;;;;;3.73;1.50;;;;;;;17.96;85.67;100933.69;5113853;28;20236;-73
2021/07/07 06:16:28;;;;;;;6.20;1.83;;;;;;;17.86;85.88;100930.91;5095589;28;20177;-73
2021/07/07 06:18:53;;;;;;;4.77;1.70;;;;;;;17.82;86.50;100926.69;5113872;28;20213;-73
2021/07/07 06:21:19;;;;;;;2.47;1.57;;;;;;;17.88;87.71;100946.97;5095672;28;20169;-74
2021/07/07 06:23:44;;;;;;;4.30;1.50;;;;;;;17.79;87.34;100959.34;5096393;28;20281;-74
2021/07/07 06:26:10;;;;;;;5.37;1.60;;;;;;;17.86;87.50;100962.44;5096095;28;20174;-74
2021/07/07 06:28:35;;;;;;;5.63;1.60;;;;;;;17.86;88.38;100955.19;5078366;28;20258;-73
2021/07/07 06:31:01;;;;;;;4.00;1.80;;;;;;;17.85;87.99;100953.47;5095756;28;20237;-74
2021/07/07 06:33:26;;;;;;;6.00;1.90;;;;;;;17.82;87.11;100953.69;5096331;28;20238;-74
2021/07/07 06:35:51;;;;;;;5.23;1.90;;;;;;;17.82;87.77;100951.00;5078927;28;20173;-74
2021/07/07 06:38:17;;;;;;;4.80;1.90;;;;;;;17.81;88.28;100960.94;5109207;28;20209;-74
2021/07/07 06:40:42;;;;;;;6.47;1.80;;;;;;;17.70;88.32;100952.84;5113471;28;20149;-72
2021/07/07 06:43:07;;;;;;;1.80;1.60;;;;;;;17.71;87.96;100959.13;5132061;28;20281;-73
2021/07/07 06:45:37;;;;;;;3.40;2.00;;;;;;;17.81;87.81;100963.63;5098321;28;20177;-74
2021/07/07 06:48:04;;;;;;;5.37;1.80;;;;;;;17.94;87.82;100978.88;5113757;28;20626;-74
2021/07/07 06:50:29;;;;;;;2.63;1.93;;;;;;;17.87;88.36;100983.06;5095407;28;20193;-74
2021/07/07 06:52:55;;;;;;;3.30;1.90;;;;;;;17.76;89.51;100984.75;5095600;28;20568;-74
2021/07/07 06:55:21;;;;;;;3.70;1.67;;;;;;;17.76;89.04;100990.16;5095514;28;20174;-73
2021/07/07 06:57:47;;;;;;;3.00;1.60;;;;;;;17.71;90.51;100973.47;5095570;28;20181;-73
2021/07/07 07:00:14;;;;;;;4.73;1.80;;;;;;;17.69;89.83;100964.63;5095781;28;20184;-73
2021/07/07 07:02:40;;;;;;;3.70;1.90;;;;;;;17.76;90.09;100967.69;5113132;28;20203;-74
2021/07/07 07:05:07;;;;;;;5.70;2.20;;;;;;;17.77;90.70;100972.97;5095336;28;20175;-74
2021/07/07 07:07:33;;;;;;;3.23;1.83;;;;;;;17.92;89.88;100987.09;5095162;28;20542;-74
2021/07/07 07:10:01;;;;;;;5.40;1.60;;;;;;;18.03;87.90;100987.06;5095094;28;20235;-73
2021/07/07 07:12:27;;;;;;;3.27;1.53;;;;;;;18.04;89.17;100996.88;5113522;28;20491;-74
2021/07/07 07:14:53;;;;;;;3.80;1.83;;;;;;;18.18;87.88;101003.84;5115392;28;20211;-74
2021/07/07 07:17:22;;;;;;;4.33;1.43;;;;;;;18.26;86.71;101005.94;5099167;28;20166;-73
2021/07/07 07:19:48;;;;;;;2.60;1.90;;;;;;;18.24;86.72;101008.78;5117526;28;20189;-74
2021/07/07 07:22:14;;;;;;;2.93;1.73;;;;;;;18.26;87.25;100990.59;5117339;28;20238;-74
2021/07/07 07:24:39;;;;;;;3.33;2.00;;;;;;;18.18;87.75;100998.44;5105014;28;20169;-73
2021/07/07 07:27:04;;;;;;;6.33;1.90;;;;;;;18.12;87.96;101004.34;5117393;28;20177;-74
2021/07/07 07:29:30;;;;;;;2.93;1.90;;;;;;;18.21;88.25;101018.94;5099048;28;20202;-74
2021/07/07 07:31:55;;;;;;;3.37;1.70;;;;;;;18.26;88.68;101028.41;5098663;28;20169;-74
2021/07/07 07:34:20;;;;;;;2.20;1.83;;;;;;;18.29;89.02;101035.41;5117063;28;20200;-73
2021/07/07 07:36:47;;;;;;;3.77;1.70;;;;;;;18.28;86.17;101047.19;5118760;28;20170;-74
2021/07/07 07:39:22;;;;;;;3.20;1.67;;;;;;;18.23;85.43;101044.88;5116755;28;20181;-73
2021/07/07 07:41:48;;;;;;;1.80;1.37;;;;;;;18.11;83.76;101026.94;5117016;28;20153;-74
2021/07/07 07:44:13;;;;;;;3.57;1.57;;;;;;;18.14;84.34;101034.78;5098812;28;20177;-73
2021/07/07 07:46:39;;;;;;;3.63;1.80;;;;;;;18.15;83.81;101024.84;5098499;28;20174;-74
2021/07/07 07:49:06;;;;;;;2.00;1.70;;;;;;;18.15;82.22;101031.09;5116500;28;20209;-73
2021/07/07 07:51:31;;;;;;;2.13;1.30;;;;;;;18.18;80.80;101048.91;5099280;28;20205;-74
2021/07/07 07:53:58;;;;;;;2.97;1.80;;;;;;;18.20;82.02;101049.63;5116799;28;20173;-73
2021/07/07 07:56:23;;;;;;;2.80;1.70;;;;;;;18.19;80.78;101046.09;5117153;28;20174;-73
2021/07/07 07:58:49;;;;;;;2.37;1.63;;;;;;;18.16;79.91;101053.56;5097989;28;20544;-73
2021/07/07 08:01:14;;;;;;;4.03;1.60;;;;;;;18.05;80.84;101063.41;5116539;28;20177;-73
2021/07/07 08:03:39;;;;;;;4.00;1.77;;;;;;;17.99;80.67;101065.75;5098102;28;20169;-73
2021/07/07 08:06:05;;;;;;;2.67;1.53;;;;;;;17.94;81.93;101062.56;5098075;28;20178;-72
2021/07/07 08:08:31;;;;;;;7.30;2.10;;;;;;;17.86;83.54;101063.19;5098109;28;20190;-72
2021/07/07 08:10:56;;;;;;;3.43;1.90;;;;;;;17.83;82.96;101084.16;5097760;28;20189;-73
2021/07/07 08:13:22;;;;;;;3.57;2.07;;;;;;;17.77;84.67;101097.16;5116337;28;20162;-75
2021/07/07 08:15:47;;;;;;;2.97;1.60;;;;;;;17.72;85.38;101093.09;5116641;28;20173;-73
2021/07/07 08:18:12;;;;;;;4.10;2.10;;;;;;;17.78;86.12;101106.09;5117625;28;20197;-74
2021/07/07 08:20:39;;;;;;;4.83;2.30;;;;;;;17.83;87.29;101103.03;5116986;28;20165;-74
2021/07/07 08:23:04;;;;;;;2.90;2.30;;;;;;;17.64;87.34;101106.31;5116231;28;20539;-72
2021/07/07 08:25:29;;;;;;;5.50;2.07;;;;;;;17.57;88.96;101107.78;5080692;28;20181;-73
2021/07/07 08:27:55;;;;;;;6.90;2.13;;;;;;;17.42;93.84;101107.09;5097724;28;20217;-73
2021/07/07 08:30:20;;;;;;;6.17;2.47;;;;;;;17.16;99.55;101106.41;5097324;28;20204;-73
2021/07/07 08:32:46;;;;;;;5.13;2.70;;;;;;;17.12;100.00;101096.84;5097574;28;20223;-72
2021/07/07 08:35:12;;;;;;;11.30;2.73;;;;;;;16.90;100.00;101102.13;5097608;28;20165;-73
2021/07/07 08:37:39;;;;;;;3.40;2.80;;;;;;;16.58;100.00;101095.44;5115709;28;20579;-72
2021/07/07 08:40:05;;;;;;;3.73;3.07;;;;;;;16.53;100.00;101091.34;5115800;28;20253;-74
2021/07/07 08:42:34;;;;;;;4.43;3.27;;;;;;;16.35;100.00;101106.16;5097619;28;20177;-74
2021/07/07 08:45:10;;;;;;;11.77;3.13;;;;;;;16.43;100.00;101101.97;5116291;28;20178;-73
2021/07/07 08:47:41;;;;;;;10.80;3.77;;;;;;;16.42;100.00;101112.84;5116004;28;20599;-73
2021/07/07 08:50:08;;;;;;;6.33;3.87;;;;;;;16.58;100.00;101130.47;5097400;28;20316;-73
2021/07/07 08:52:34;;;;;;;6.37;4.67;;;;;;;16.75;100.00;101140.03;5115884;28;20170;-73
2021/07/07 08:54:59;;;;;;;8.27;4.43;;;;;;;16.69;100.00;101135.09;5097213;28;20533;-73
2021/07/07 08:57:26;;;;;;;7.97;3.07;;;;;;;16.66;100.00;101145.22;5115667;28;20515;-73
2021/07/07 08:59:52;;;;;;;5.87;3.47;;;;;;;16.53;100.00;101161.41;5097601;28;20172;-73
2021/07/07 09:02:17;;;;;;;4.67;3.07;;;;;;;16.46;100.00;101168.22;5097385;28;20174;-74
2021/07/07 09:04:44;;;;;;;4.97;3.00;;;;;;;16.35;100.00;101170.78;5115989;28;20165;-74
2021/07/07 09:07:10;;;;;;;4.03;3.10;;;;;;;16.30;100.00;101168.44;5098347;28;20218;-73
2021/07/07 09:09:44;;;;;;;10.40;3.43;;;;;;;16.16;100.00;101182.03;5097244;28;20299;-73
2021/07/07 09:12:16;;;;;;;7.33;3.40;;;;;;;16.38;100.00;101189.47;5097323;28;20215;-73
2021/07/07 09:14:43;;;;;;;7.67;3.50;;;;;;;16.39;100.00;101192.03;5115079;28;20177;-73
2021/07/07 09:17:14;;;;;;;7.67;3.47;;;;;;;16.34;100.00;101186.09;5096907;28;20170;-73
2021/07/07 09:19:40;;;;;;;7.60;3.70;;;;;;;16.34;100.00;101193.31;5115016;28;20278;-74
2021/07/07 09:22:07;;;;;;;6.80;3.47;;;;;;;16.35;100.00;101200.44;5096929;28;20173;-73
2021/07/07 09:24:34;;;;;;;5.67;3.90;;;;;;;16.49;100.00;101198.50;5115082;28;20253;-73
2021/07/07 09:27:14;;;;;;;9.87;6.37;;;;;;;16.63;100.00;101193.94;5115493;28;20162;-73
2021/07/07 09:29:51;;;;;;;5.97;4.00;;;;;;;16.62;100.00;101205.69;5114802;28;20288;-73
2021/07/07 09:32:18;;;;;;;7.03;3.53;;;;;;;16.40;100.00;101228.78;5096932;28;20160;-74
2021/07/07 09:34:46;;;;;;;3.20;2.23;;;;;;;16.25;100.00;101237.94;5114794;28;20165;-74
2021/07/07 09:37:21;;;;;;;5.43;3.03;;;;;;;16.14;100.00;101235.13;5096811;28;20529;-74
2021/07/07 09:39:47;;;;;;;6.13;2.87;;;;;;;16.00;100.00;101228.03;5097285;28;20157;-74
2021/07/07 09:42:12;;;;;;;5.83;3.40;;;;;;;15.98;100.00;101237.16;5115259;28;20166;-74
2021/07/07 09:44:37;;;;;;;5.90;3.10;;;;;;;15.98;100.00;101242.53;5115050;28;20694;-74
2021/07/07 09:47:06;;;;;;;6.07;2.70;;;;;;;15.68;100.00;101237.44;5114613;28;20170;-74
2021/07/07 09:49:32;;;;;;;5.33;2.30;;;;;;;15.68;100.00;101238.31;5114669;28;20228;-74
2021/07/07 09:51:59;;;;;;;6.60;2.73;;;;;;;15.66;100.00;101240.25;5097318;28;20248;-75
2021/07/07 09:54:24;;;;;;;5.50;3.20;;;;;;;15.84;100.00;101241.66;5115735;28;20173;-74
2021/07/07 09:56:49;;;;;;;9.00;3.57;;;;;;;15.68;100.00;101254.44;5096729;28;20576;-74
2021/07/07 09:59:15;;;;;;;4.13;2.83;;;;;;;15.81;100.00;101260.72;5115271;28;20189;-74
2021/07/07 10:01:40;;;;;;;7.70;2.90;;;;;;;15.86;100.00;101263.94;5096669;28;20166;-75
2021/07/07 10:04:10;;;;;;;6.87;2.90;;;;;;;15.79;100.00;101264.47;5114662;28;20182;-76
2021/07/07 10:06:36;;;;;;;6.40;2.90;;;;;;;15.94;100.00;101264.28;5096855;28;20604;-76
2021/07/07 10:09:01;;;;;;;14.07;3.20;;;;;;;16.09;100.00;101264.22;5096259;28;20189;-75
2021/07/07 10:11:27;;;;;;;7.90;3.07;;;;;;;15.93;100.00;101264.41;5114435;28;20173;-74
2021/07/07 10:13:52;;;;;;;6.40;3.60;;;;;;;15.83;100.00;101274.94;5114261;28;20181;-74
2021/07/07 10:16:17;;;;;;;4.67;3.20;;;;;;;15.80;100.00;101285.91;5096702;28;20182;-73
2021/07/07 10:18:43;;;;;;;7.07;3.47;;;;;;;15.83;100.00;101291.09;5098081;28;20268;-75
2021/07/07 10:21:08;;;;;;;6.43;3.60;;;;;;;15.85;100.00;101290.97;5096522;28;20225;-74
2021/07/07 10:23:38;;;;;;;5.70;3.90;;;;;;;16.02;100.00;101289.84;5115127;28;20180;-74
2021/07/07 10:26:05;;;;;;;7.37;4.10;;;;;;;15.98;100.00;101305.31;5097369;28;20269;-73
2021/07/07 10:28:30;;;;;;;11.20;4.57;;;;;;;15.98;100.00;101309.84;5097536;28;20201;-74
2021/07/07 10:31:03;;;;;;;10.27;4.20;;;;;;;16.11;100.00;101305.38;5096851;28;20205;-74
2021/07/07 10:33:31;;;;;;;10.20;4.20;;;;;;;16.02;100.00;101301.47;5097052;28;20166;-73
2021/07/07 10:36:20;;;;;;;9.57;5.10;;;;;;;16.12;100.00;101302.56;5096110;28;20174;-74
2021/07/07 10:39:04;;;;;;;15.50;3.97;;;;;;;16.21;100.00;101298.38;5113872;28;20190;-73
2021/07/07 10:41:42;;;;;;;11.57;4.50;;;;;;;16.29;100.00;101295.13;5095719;28;20177;-73
2021/07/07 10:44:23;;;;;;;6.67;4.10;;;;;;;16.38;100.00;101292.69;5095768;28;20656;-73
2021/07/07 10:47:05;;;;;;;8.70;3.37;;;;;;;16.12;100.00;101289.09;5095578;28;20629;-73
2021/07/07 10:49:52;;;;;;;6.50;2.80;;;;;;;15.94;100.00;101293.91;5100078;28;20323;-74
2021/07/07 10:52:31;;;;;;;3.93;2.67;;;;;;;16.10;100.00;101293.72;5118115;28;20165;-73
2021/07/07 10:54:59;;;;;;;6.57;3.10;;;;;;;16.22;100.00;101294.72;5099835;28;20685;-75
2021/07/07 10:57:26;;;;;;;8.50;3.20;;;;;;;16.40;100.00;101306.91;5084678;28;20246;-74
2021/07/07 10:59:54;;;;;;;6.70;3.07;;;;;;;16.37;100.00;101303.56;5121390;28;20174;-72
2021/07/07 11:02:21;;;;;;;11.77;3.40;;;;;;;16.39;100.00;101305.19;5102551;28;20173;-73
2021/07/07 11:04:59;;;;;;;5.23;3.23;;;;;;;16.23;100.00;101299.97;5102643;28;20293;-73
2021/07/07 11:07:40;;;;;;;5.10;3.07;;;;;;;16.29;100.00;101304.06;5111025;28;20161;-74
2021/07/07 11:10:08;;;;;;;6.57;3.53;;;;;;;16.45;100.00;101306.59;5118000;28;20204;-74
2021/07/07 11:12:40;;;;;;;8.37;3.70;;;;;;;16.52;100.00;101311.44;5100070;28;20184;-74
2021/07/07 11:15:08;;;;;;;5.50;3.00;;;;;;;16.26;100.00;101320.47;5117436;28;20199;-74
2021/07/07 11:17:39;;;;;;;10.73;3.80;;;;;;;16.15;100.00;101331.97;5099773;28;20831;-73
2021/07/07 11:20:10;;;;;;;8.73;3.90;;;;;;;16.38;100.00;101335.78;5099675;28;20166;-74